createdAt,value
2023-12-30T00:00:19.143Z,87.57
2023-12-30T00:01:17.364Z,87.57
2023-12-30T00:02:17.209Z,87.57
2023-12-30T00:03:17.219Z,87.37
2023-12-30T00:04:17.207Z,87.67
2023-12-30T00:05:17.182Z,87.57
2023-12-30T00:06:17.221Z,87.37
2023-12-30T00:07:17.236Z,87.67
2023-12-30T00:08:17.150Z,87.67
2023-12-30T00:09:17.141Z,87.67
2023-12-30T00:10:17.181Z,87.67
2023-12-30T00:11:17.117Z,87.57
2023-12-30T00:12:17.099Z,87.57
2023-12-30T00:13:17.127Z,87.57
2023-12-30T00:14:17.078Z,87.57
2023-12-30T00:15:17.055Z,87.57
2023-12-30T00:16:17.169Z,87.57
2023-12-30T00:17:17.047Z,87.46
2023-12-30T00:18:17.139Z,87.57
2023-12-30T00:19:17.116Z,87.57
2023-12-30T00:20:17.005Z,87.57
2023-12-30T00:21:17.002Z,87.57
2023-12-30T00:22:17.001Z,87.61
2023-12-30T00:23:17.004Z,87.57
2023-12-30T00:24:16.984Z,87.57
2023-12-30T00:25:16.957Z,87.46
2023-12-30T00:26:16.946Z,87.57
2023-12-30T00:27:16.950Z,87.57
2023-12-30T00:28:16.997Z,87.57
2023-12-30T00:29:16.904Z,87.57
2023-12-30T00:30:16.960Z,87.61
2023-12-30T00:31:17.011Z,87.57
2023-12-30T00:32:16.889Z,87.67
2023-12-30T00:33:16.892Z,87.67
2023-12-30T00:34:17.046Z,87.57
2023-12-30T00:35:16.851Z,87.57
2023-12-30T00:36:16.865Z,87.57
2023-12-30T00:37:16.844Z,87.57
2023-12-30T00:38:23.847Z,87.57
2023-12-30T00:39:16.799Z,87.57
2023-12-30T00:40:24.339Z,87.61
2023-12-30T00:41:16.793Z,87.61
2023-12-30T00:42:16.769Z,87.46
2023-12-30T00:43:16.788Z,87.61
2023-12-30T00:44:16.788Z,87.71
2023-12-30T00:45:16.758Z,87.71
2023-12-30T00:46:16.782Z,87.61
2023-12-30T00:47:16.736Z,87.51
2023-12-30T00:48:16.789Z,87.61
2023-12-30T00:49:16.887Z,87.61
2023-12-30T00:50:16.719Z,87.51
2023-12-30T00:51:16.683Z,87.61
2023-12-30T00:52:16.704Z,87.61
2023-12-30T00:53:16.657Z,87.61
2023-12-30T00:54:16.666Z,87.61
2023-12-30T00:55:16.736Z,87.61
2023-12-30T00:56:16.632Z,87.61
2023-12-30T00:57:16.646Z,87.61
2023-12-30T00:58:16.680Z,87.61
2023-12-30T00:59:16.598Z,87.61
2023-12-30T01:00:16.628Z,87.61
2023-12-30T01:01:16.750Z,87.51
2023-12-30T01:02:16.580Z,87.51
2023-12-30T01:03:16.571Z,87.61
2023-12-30T01:04:16.606Z,87.61
2023-12-30T01:05:16.546Z,87.51
2023-12-30T01:06:16.598Z,87.61
2023-12-30T01:07:16.532Z,87.61
2023-12-30T01:08:16.522Z,87.61
2023-12-30T01:09:16.496Z,87.61
2023-12-30T01:10:16.526Z,87.61
2023-12-30T01:11:16.443Z,87.61
2023-12-30T01:12:16.441Z,87.61
2023-12-30T01:13:16.508Z,87.61
2023-12-30T01:14:16.435Z,87.51
2023-12-30T01:15:16.416Z,87.61
2023-12-30T01:16:16.456Z,87.61
2023-12-30T01:17:16.502Z,87.61
2023-12-30T01:18:16.504Z,87.61
2023-12-30T01:19:16.490Z,87.61
2023-12-30T01:20:16.356Z,87.51
2023-12-30T01:21:16.353Z,87.61
2023-12-30T01:22:16.389Z,87.61
2023-12-30T01:23:16.412Z,87.61
2023-12-30T01:24:16.313Z,87.61
2023-12-30T01:25:16.353Z,87.51
2023-12-30T01:26:16.292Z,87.51
2023-12-30T01:27:16.285Z,87.30
2023-12-30T01:28:16.314Z,87.61
2023-12-30T01:29:16.272Z,87.51
2023-12-30T01:30:16.328Z,87.61
2023-12-30T01:31:16.409Z,87.51
2023-12-30T01:32:16.240Z,87.51
2023-12-30T01:33:16.301Z,87.51
2023-12-30T01:34:16.258Z,87.61
2023-12-30T01:35:16.224Z,87.51
2023-12-30T01:36:16.186Z,87.51
2023-12-30T01:37:16.246Z,87.51
2023-12-30T01:38:16.202Z,87.51
2023-12-30T01:39:16.144Z,87.30
2023-12-30T01:40:16.190Z,87.51
2023-12-30T01:41:16.134Z,87.51
2023-12-30T01:42:16.135Z,87.51
2023-12-30T01:43:16.135Z,87.51
2023-12-30T01:44:16.098Z,87.51
2023-12-30T01:45:16.121Z,87.51
2023-12-30T01:46:16.103Z,87.51
2023-12-30T01:47:16.108Z,87.51
2023-12-30T01:48:16.145Z,87.51
2023-12-30T01:49:16.115Z,87.51
2023-12-30T01:50:16.046Z,87.51
2023-12-30T01:51:24.677Z,87.51
2023-12-30T01:52:16.037Z,87.51
2023-12-30T01:53:16.036Z,87.51
2023-12-30T01:54:16.025Z,87.51
2023-12-30T01:55:16.175Z,87.51
2023-12-30T01:56:15.981Z,87.51
2023-12-30T01:57:15.956Z,87.51
2023-12-30T01:58:15.973Z,87.51
2023-12-30T01:59:15.983Z,87.51
2023-12-30T02:00:15.941Z,87.51
2023-12-30T02:01:15.976Z,87.51
2023-12-30T02:02:15.988Z,87.61
2023-12-30T02:03:15.956Z,87.51
2023-12-30T02:04:15.942Z,87.55
2023-12-30T02:05:16.867Z,87.51
2023-12-30T02:06:15.914Z,87.51
2023-12-30T02:07:15.917Z,87.51
2023-12-30T02:08:15.898Z,87.51
2023-12-30T02:09:15.844Z,87.51
2023-12-30T02:10:15.934Z,87.51
2023-12-30T02:11:15.822Z,87.55
2023-12-30T02:12:15.820Z,87.51
2023-12-30T02:13:15.879Z,87.51
2023-12-30T02:14:15.793Z,87.55
2023-12-30T02:15:15.807Z,87.51
2023-12-30T02:16:15.806Z,87.51
2023-12-30T02:17:15.748Z,87.51
2023-12-30T02:18:15.783Z,87.55
2023-12-30T02:19:15.792Z,87.51
2023-12-30T02:20:15.787Z,87.55
2023-12-30T02:21:15.694Z,87.55
2023-12-30T02:22:15.785Z,87.51
2023-12-30T02:23:15.705Z,87.51
2023-12-30T02:24:15.712Z,87.51
2023-12-30T02:25:15.702Z,87.55
2023-12-30T02:26:15.691Z,87.55
2023-12-30T02:27:15.628Z,87.55
2023-12-30T02:28:15.765Z,87.55
2023-12-30T02:29:15.622Z,87.55
2023-12-30T02:30:15.715Z,87.55
2023-12-30T02:31:15.799Z,87.55
2023-12-30T02:32:15.630Z,87.55
2023-12-30T02:33:15.667Z,87.55
2023-12-30T02:34:15.823Z,87.65
2023-12-30T02:35:15.739Z,87.55
2023-12-30T02:36:15.675Z,87.55
2023-12-30T02:37:15.553Z,87.55
2023-12-30T02:38:15.521Z,87.55
2023-12-30T02:39:15.506Z,87.55
2023-12-30T02:40:15.525Z,87.55
2023-12-30T02:41:15.514Z,87.55
2023-12-30T02:42:15.596Z,87.55
2023-12-30T02:43:15.506Z,87.55
2023-12-30T02:44:15.453Z,87.55
2023-12-30T02:45:15.446Z,87.55
2023-12-30T02:46:15.479Z,87.55
2023-12-30T02:47:15.463Z,87.55
2023-12-30T02:48:15.552Z,87.55
2023-12-30T02:49:15.452Z,87.55
2023-12-30T02:50:15.406Z,87.55
2023-12-30T02:51:15.407Z,87.55
2023-12-30T02:52:15.461Z,87.55
2023-12-30T02:53:15.351Z,87.55
2023-12-30T02:54:15.371Z,87.55
2023-12-30T02:55:15.368Z,87.55
2023-12-30T02:56:15.344Z,87.55
2023-12-30T02:57:15.310Z,87.55
2023-12-30T02:58:15.335Z,87.55
2023-12-30T02:59:15.280Z,87.55
2023-12-30T03:00:15.278Z,87.55
2023-12-30T03:01:15.281Z,87.55
2023-12-30T03:02:15.264Z,87.55
2023-12-30T03:03:15.263Z,87.55
2023-12-30T03:04:15.317Z,87.55
2023-12-30T03:05:15.506Z,87.55
2023-12-30T03:06:15.401Z,87.55
2023-12-30T03:07:15.242Z,87.55
2023-12-30T03:08:15.221Z,87.55
2023-12-30T03:09:15.187Z,87.55
2023-12-30T03:10:15.338Z,87.55
2023-12-30T03:11:15.189Z,87.55
2023-12-30T03:12:15.191Z,87.55
2023-12-30T03:13:15.171Z,87.55
2023-12-30T03:14:15.145Z,87.55
2023-12-30T03:15:15.153Z,87.55
2023-12-30T03:16:15.126Z,87.55
2023-12-30T03:17:15.110Z,87.55
2023-12-30T03:18:15.171Z,87.55
2023-12-30T03:19:15.098Z,87.55
2023-12-30T03:20:15.077Z,87.55
2023-12-30T03:21:15.073Z,87.55
2023-12-30T03:22:15.061Z,87.55
2023-12-30T03:23:15.044Z,87.55
2023-12-30T03:24:15.026Z,87.55
2023-12-30T03:25:15.050Z,87.55
2023-12-30T03:26:14.994Z,87.55
2023-12-30T03:27:15.014Z,87.55
2023-12-30T03:28:14.999Z,87.55
2023-12-30T03:29:14.976Z,87.55
2023-12-30T03:30:15.031Z,87.55
2023-12-30T03:31:14.954Z,87.55
2023-12-30T03:32:14.935Z,87.55
2023-12-30T03:33:15.205Z,87.55
2023-12-30T03:34:15.005Z,87.55
2023-12-30T03:35:14.948Z,87.55
2023-12-30T03:36:14.913Z,87.55
2023-12-30T03:37:14.941Z,87.55
2023-12-30T03:38:14.992Z,87.55
2023-12-30T03:39:14.879Z,87.55
2023-12-30T03:40:14.893Z,87.55
2023-12-30T03:41:14.837Z,87.55
2023-12-30T03:42:14.840Z,87.55
2023-12-30T03:43:14.876Z,87.55
2023-12-30T03:44:14.807Z,87.55
2023-12-30T03:45:14.813Z,87.55
2023-12-30T03:46:14.819Z,87.55
2023-12-30T03:47:14.807Z,87.55
2023-12-30T03:48:14.974Z,87.55
2023-12-30T03:49:14.838Z,87.59
2023-12-30T03:50:14.770Z,87.59
2023-12-30T03:51:14.733Z,87.55
2023-12-30T03:52:14.779Z,87.55
2023-12-30T03:53:14.711Z,87.55
2023-12-30T03:54:14.701Z,87.59
2023-12-30T03:55:14.722Z,87.55
2023-12-30T03:56:14.686Z,87.55
2023-12-30T03:57:14.695Z,87.59
2023-12-30T03:58:14.703Z,87.59
2023-12-30T03:59:14.665Z,87.55
2023-12-30T04:00:14.639Z,87.59
2023-12-30T04:01:14.703Z,87.59
2023-12-30T04:02:14.621Z,87.59
2023-12-30T04:03:14.646Z,87.59
2023-12-30T04:04:14.676Z,87.59
2023-12-30T04:05:14.625Z,87.59
2023-12-30T04:06:14.613Z,87.59
2023-12-30T04:07:14.762Z,87.59
2023-12-30T04:08:14.559Z,87.59
2023-12-30T04:09:14.537Z,87.59
2023-12-30T04:10:14.614Z,87.59
2023-12-30T04:11:14.595Z,87.59
2023-12-30T04:12:14.505Z,87.59
2023-12-30T04:13:14.624Z,87.59
2023-12-30T04:14:14.492Z,87.59
2023-12-30T04:15:14.535Z,87.59
2023-12-30T04:16:14.534Z,87.59
2023-12-30T04:17:14.482Z,87.59
2023-12-30T04:18:14.493Z,87.59
2023-12-30T04:19:14.610Z,87.59
2023-12-30T04:20:14.426Z,87.59
2023-12-30T04:21:14.446Z,87.59
2023-12-30T04:22:14.431Z,87.59
2023-12-30T04:23:14.419Z,87.59
2023-12-30T04:24:14.377Z,87.59
2023-12-30T04:25:14.398Z,87.59
2023-12-30T04:26:14.354Z,87.59
2023-12-30T04:27:14.340Z,87.59
2023-12-30T04:28:14.373Z,87.69
2023-12-30T04:29:14.330Z,87.59
2023-12-30T04:30:14.515Z,87.59
2023-12-30T04:31:14.417Z,87.59
2023-12-30T04:32:14.295Z,87.59
2023-12-30T04:33:14.373Z,87.59
2023-12-30T04:34:14.372Z,87.59
2023-12-30T04:35:14.274Z,87.69
2023-12-30T04:36:14.304Z,87.59
2023-12-30T04:37:14.265Z,87.59
2023-12-30T04:38:14.230Z,87.59
2023-12-30T04:39:14.231Z,87.69
2023-12-30T04:40:14.268Z,87.59
2023-12-30T04:41:14.232Z,87.59
2023-12-30T04:42:14.179Z,87.69
2023-12-30T04:43:14.221Z,87.59
2023-12-30T04:44:14.153Z,87.69
2023-12-30T04:45:14.452Z,87.59
2023-12-30T04:46:14.196Z,87.59
2023-12-30T04:47:14.151Z,87.59
2023-12-30T04:48:14.265Z,87.59
2023-12-30T04:49:14.237Z,87.59
2023-12-30T04:50:14.084Z,87.59
2023-12-30T04:51:14.105Z,87.59
2023-12-30T04:52:14.183Z,87.59
2023-12-30T04:53:14.063Z,87.69
2023-12-30T04:54:14.104Z,87.59
2023-12-30T04:55:14.081Z,87.59
2023-12-30T04:56:14.013Z,87.59
2023-12-30T04:57:14.057Z,87.59
2023-12-30T04:58:14.113Z,87.69
2023-12-30T04:59:14.006Z,87.69
2023-12-30T05:00:14.024Z,87.59
2023-12-30T05:01:14.062Z,87.69
2023-12-30T05:02:14.027Z,87.69
2023-12-30T05:03:14.028Z,87.59
2023-12-30T05:04:14.031Z,87.69
2023-12-30T05:05:14.025Z,87.69
2023-12-30T05:06:13.933Z,87.69
2023-12-30T05:07:13.955Z,87.69
2023-12-30T05:08:13.939Z,87.69
2023-12-30T05:09:13.892Z,87.59
2023-12-30T05:10:13.941Z,87.69
2023-12-30T05:11:13.891Z,87.59
2023-12-30T05:12:13.856Z,87.59
2023-12-30T05:13:13.981Z,87.59
2023-12-30T05:14:13.861Z,87.69
2023-12-30T05:15:13.853Z,87.59
2023-12-30T05:16:13.903Z,87.69
2023-12-30T05:17:13.852Z,87.59
2023-12-30T05:18:13.872Z,87.59
2023-12-30T05:19:14.047Z,87.59
2023-12-30T05:20:14.031Z,87.59
2023-12-30T05:21:13.789Z,87.59
2023-12-30T05:22:13.776Z,87.59
2023-12-30T05:23:13.792Z,87.59
2023-12-30T05:24:13.725Z,87.59
2023-12-30T05:25:13.761Z,87.59
2023-12-30T05:26:13.736Z,87.59
2023-12-30T05:27:13.703Z,87.59
2023-12-30T05:28:13.723Z,87.59
2023-12-30T05:29:13.681Z,87.59
2023-12-30T05:30:13.685Z,87.69
2023-12-30T05:31:13.768Z,87.59
2023-12-30T05:32:13.630Z,87.59
2023-12-30T05:33:13.687Z,87.59
2023-12-30T05:34:13.704Z,87.69
2023-12-30T05:35:13.662Z,87.59
2023-12-30T05:36:13.627Z,87.59
2023-12-30T05:37:13.686Z,87.59
2023-12-30T05:38:13.942Z,87.69
2023-12-30T05:39:13.583Z,87.59
2023-12-30T05:40:13.629Z,87.69
2023-12-30T05:41:13.570Z,87.69
2023-12-30T05:42:13.538Z,87.69
2023-12-30T05:43:13.596Z,87.59
2023-12-30T05:44:13.587Z,87.59
2023-12-30T05:45:13.505Z,87.69
2023-12-30T05:46:13.514Z,87.69
2023-12-30T05:47:13.530Z,87.59
2023-12-30T05:48:13.618Z,87.59
2023-12-30T05:49:13.634Z,87.59
2023-12-30T05:50:13.436Z,87.63
2023-12-30T05:51:13.434Z,87.59
2023-12-30T05:52:13.448Z,87.59
2023-12-30T05:53:13.445Z,87.59
2023-12-30T05:54:13.408Z,87.63
2023-12-30T05:55:13.441Z,87.59
2023-12-30T05:56:13.382Z,87.59
2023-12-30T05:57:13.373Z,87.59
2023-12-30T05:58:13.501Z,87.59
2023-12-30T05:59:13.426Z,87.63
2023-12-30T06:00:13.320Z,87.59
2023-12-30T06:01:13.454Z,87.63
2023-12-30T06:02:13.379Z,87.59
2023-12-30T06:03:13.327Z,87.63
2023-12-30T06:04:13.335Z,87.63
2023-12-30T06:05:13.278Z,87.59
2023-12-30T06:06:13.348Z,87.59
2023-12-30T06:07:13.362Z,87.63
2023-12-30T06:08:13.374Z,87.63
2023-12-30T06:09:13.255Z,87.59
2023-12-30T06:10:13.299Z,87.63
2023-12-30T06:11:13.222Z,87.63
2023-12-30T06:12:13.221Z,87.63
2023-12-30T06:13:13.224Z,87.63
2023-12-30T06:14:13.233Z,87.63
2023-12-30T06:15:13.187Z,87.63
2023-12-30T06:16:13.236Z,87.63
2023-12-30T06:17:13.158Z,87.63
2023-12-30T06:18:13.316Z,87.63
2023-12-30T06:19:14.082Z,87.63
2023-12-30T06:20:13.133Z,87.63
2023-12-30T06:21:13.134Z,87.63
2023-12-30T06:22:13.162Z,87.63
2023-12-30T06:23:13.089Z,87.63
2023-12-30T06:24:13.062Z,87.63
2023-12-30T06:25:13.093Z,87.63
2023-12-30T06:26:13.077Z,87.63
2023-12-30T06:27:13.069Z,87.63
2023-12-30T06:28:13.081Z,87.63
2023-12-30T06:29:13.035Z,87.63
2023-12-30T06:30:13.024Z,87.63
2023-12-30T06:31:13.028Z,87.63
2023-12-30T06:32:13.023Z,87.63
2023-12-30T06:33:13.102Z,87.63
2023-12-30T06:34:13.086Z,87.63
2023-12-30T06:35:12.971Z,87.73
2023-12-30T06:36:12.954Z,87.63
2023-12-30T06:37:12.999Z,87.63
2023-12-30T06:38:12.962Z,87.63
2023-12-30T06:39:12.946Z,87.63
2023-12-30T06:40:12.984Z,87.73
2023-12-30T06:41:12.889Z,87.63
2023-12-30T06:42:12.910Z,87.63
2023-12-30T06:43:12.881Z,87.63
2023-12-30T06:44:12.869Z,87.63
2023-12-30T06:45:12.865Z,87.63
2023-12-30T06:46:12.874Z,87.63
2023-12-30T06:47:12.917Z,87.63
2023-12-30T06:48:12.837Z,87.63
2023-12-30T06:49:13.077Z,87.63
2023-12-30T06:50:12.877Z,87.63
2023-12-30T06:51:12.803Z,87.63
2023-12-30T06:52:12.829Z,87.63
2023-12-30T06:53:12.759Z,87.63
2023-12-30T06:54:12.759Z,87.73
2023-12-30T06:55:18.945Z,87.63
2023-12-30T06:56:12.814Z,87.63
2023-12-30T06:57:12.731Z,87.63
2023-12-30T06:58:12.769Z,87.63
2023-12-30T06:59:14.227Z,87.63
2023-12-30T07:00:12.767Z,87.63
2023-12-30T07:01:12.799Z,87.63
2023-12-30T07:02:12.700Z,87.63
2023-12-30T07:03:12.726Z,87.63
2023-12-30T07:04:12.703Z,87.63
2023-12-30T07:05:12.757Z,87.63
2023-12-30T07:06:12.622Z,87.63
2023-12-30T07:07:12.646Z,87.63
2023-12-30T07:08:12.611Z,87.63
2023-12-30T07:09:12.600Z,87.63
2023-12-30T07:10:12.644Z,87.63
2023-12-30T07:11:12.564Z,87.63
2023-12-30T07:12:12.575Z,87.63
2023-12-30T07:13:12.596Z,87.63
2023-12-30T07:14:12.559Z,87.63
2023-12-30T07:15:12.578Z,87.63
2023-12-30T07:16:12.563Z,87.63
2023-12-30T07:17:12.509Z,87.63
2023-12-30T07:18:12.596Z,87.63
2023-12-30T07:19:12.643Z,87.63
2023-12-30T07:20:12.485Z,87.63
2023-12-30T07:21:12.454Z,87.63
2023-12-30T07:22:12.502Z,87.63
2023-12-30T07:23:12.433Z,87.63
2023-12-30T07:24:12.426Z,87.63
2023-12-30T07:25:12.558Z,87.63
2023-12-30T07:26:12.459Z,87.63
2023-12-30T07:27:12.447Z,87.63
2023-12-30T07:28:12.418Z,87.63
2023-12-30T07:29:12.357Z,87.63
2023-12-30T07:30:12.527Z,87.63
2023-12-30T07:31:12.424Z,87.63
2023-12-30T07:32:12.366Z,87.63
2023-12-30T07:33:12.461Z,87.63
2023-12-30T07:34:12.370Z,87.63
2023-12-30T07:35:12.321Z,87.63
2023-12-30T07:36:12.324Z,87.63
2023-12-30T07:37:12.328Z,87.63
2023-12-30T07:38:12.272Z,87.63
2023-12-30T07:39:12.259Z,87.63
2023-12-30T07:40:12.281Z,87.63
2023-12-30T07:41:12.202Z,87.67
2023-12-30T07:42:12.278Z,87.63
2023-12-30T07:43:12.266Z,87.63
2023-12-30T07:44:12.218Z,87.63
2023-12-30T07:45:12.214Z,87.63
2023-12-30T07:46:12.228Z,87.63
2023-12-30T07:47:12.229Z,87.63
2023-12-30T07:48:12.202Z,87.63
2023-12-30T07:49:12.312Z,87.63
2023-12-30T07:50:12.339Z,87.63
2023-12-30T07:51:12.092Z,87.63
2023-12-30T07:52:12.092Z,87.67
2023-12-30T07:53:12.114Z,87.63
2023-12-30T07:54:12.120Z,87.63
2023-12-30T07:55:12.125Z,87.63
2023-12-30T07:56:12.083Z,87.63
2023-12-30T07:57:12.067Z,87.67
2023-12-30T07:58:12.125Z,87.67
2023-12-30T07:59:12.019Z,87.63
2023-12-30T08:00:12.054Z,87.63
2023-12-30T08:01:12.131Z,87.63
2023-12-30T08:02:12.064Z,87.63
2023-12-30T08:03:11.992Z,87.63
2023-12-30T08:04:12.221Z,87.63
2023-12-30T08:05:12.007Z,87.67
2023-12-30T08:06:12.021Z,87.63
2023-12-30T08:07:11.989Z,87.67
2023-12-30T08:08:12.034Z,87.63
2023-12-30T08:09:11.941Z,87.63
2023-12-30T08:10:11.987Z,87.63
2023-12-30T08:11:11.920Z,87.67
2023-12-30T08:12:11.952Z,87.67
2023-12-30T08:13:11.898Z,87.63
2023-12-30T08:14:11.860Z,87.67
2023-12-30T08:15:11.814Z,87.67
2023-12-30T08:16:11.885Z,87.67
2023-12-30T08:17:11.830Z,87.67
2023-12-30T08:18:11.851Z,87.67
2023-12-30T08:19:11.814Z,87.67
2023-12-30T08:20:11.778Z,87.67
2023-12-30T08:21:11.747Z,87.67
2023-12-30T08:22:11.791Z,87.67
2023-12-30T08:23:11.732Z,87.77
2023-12-30T08:24:11.725Z,87.67
2023-12-30T08:25:11.756Z,87.67
2023-12-30T08:26:11.759Z,87.67
2023-12-30T08:27:11.781Z,87.67
2023-12-30T08:28:11.765Z,87.67
2023-12-30T08:29:11.745Z,87.63
2023-12-30T08:30:11.849Z,87.67
2023-12-30T08:31:11.811Z,87.67
2023-12-30T08:32:11.696Z,87.63
2023-12-30T08:33:11.810Z,87.67
2023-12-30T08:34:11.773Z,87.63
2023-12-30T08:35:11.784Z,87.63
2023-12-30T08:36:11.673Z,87.67
2023-12-30T08:37:11.666Z,87.67
2023-12-30T08:38:11.622Z,87.63
2023-12-30T08:39:11.664Z,87.67
2023-12-30T08:40:11.619Z,87.67
2023-12-30T08:41:11.601Z,87.67
2023-12-30T08:42:11.601Z,87.67
2023-12-30T08:43:11.596Z,87.67
2023-12-30T08:44:11.521Z,87.67
2023-12-30T08:45:11.506Z,87.67
2023-12-30T08:46:11.689Z,87.67
2023-12-30T08:47:11.587Z,87.63
2023-12-30T08:48:11.540Z,87.77
2023-12-30T08:49:11.521Z,87.67
2023-12-30T08:50:11.581Z,87.67
2023-12-30T08:51:11.429Z,87.57
2023-12-30T08:52:11.496Z,87.67
2023-12-30T08:53:11.409Z,87.67
2023-12-30T08:54:11.423Z,87.67
2023-12-30T08:55:11.461Z,87.67
2023-12-30T08:56:11.426Z,87.67
2023-12-30T08:57:11.378Z,87.67
2023-12-30T08:58:11.375Z,87.67
2023-12-30T08:59:11.392Z,87.67
2023-12-30T09:00:11.411Z,87.67
2023-12-30T09:01:11.532Z,87.67
2023-12-30T09:02:11.349Z,87.67
2023-12-30T09:03:11.325Z,87.63
2023-12-30T09:04:11.597Z,87.67
2023-12-30T09:05:11.286Z,87.67
2023-12-30T09:06:11.378Z,87.63
2023-12-30T09:07:11.295Z,87.67
2023-12-30T09:08:11.256Z,87.63
2023-12-30T09:09:11.283Z,87.67
2023-12-30T09:10:11.260Z,87.67
2023-12-30T09:11:11.373Z,87.67
2023-12-30T09:12:11.216Z,87.67
2023-12-30T09:13:11.244Z,87.67
2023-12-30T09:14:11.189Z,87.63
2023-12-30T09:15:11.196Z,87.67
2023-12-30T09:16:11.209Z,87.67
2023-12-30T09:17:11.149Z,87.67
2023-12-30T09:18:14.828Z,87.67
2023-12-30T09:19:11.264Z,87.63
2023-12-30T09:20:11.192Z,87.67
2023-12-30T09:21:11.122Z,87.63
2023-12-30T09:22:11.157Z,87.57
2023-12-30T09:23:11.122Z,87.67
2023-12-30T09:24:11.125Z,87.63
2023-12-30T09:25:11.102Z,87.63
2023-12-30T09:26:11.065Z,87.63
2023-12-30T09:27:11.068Z,87.52
2023-12-30T09:28:11.048Z,87.67
2023-12-30T09:29:11.033Z,87.67
2023-12-30T09:30:11.056Z,87.67
2023-12-30T09:31:11.038Z,87.52
2023-12-30T09:32:11.002Z,87.63
2023-12-30T09:33:12.433Z,87.63
2023-12-30T09:34:11.066Z,87.67
2023-12-30T09:35:11.025Z,87.63
2023-12-30T09:36:10.966Z,87.63
2023-12-30T09:37:11.019Z,87.67
2023-12-30T09:38:10.926Z,87.63
2023-12-30T09:39:10.940Z,87.63
2023-12-30T09:40:11.003Z,87.63
2023-12-30T09:41:10.923Z,87.63
2023-12-30T09:42:10.929Z,87.63
2023-12-30T09:43:10.916Z,87.63
2023-12-30T09:44:10.894Z,87.52
2023-12-30T09:45:10.872Z,87.67
2023-12-30T09:46:11.016Z,87.67
2023-12-30T09:47:10.905Z,87.63
2023-12-30T09:48:11.091Z,87.63
2023-12-30T09:49:10.881Z,87.63
2023-12-30T09:50:10.842Z,87.63
2023-12-30T09:51:10.871Z,87.63
2023-12-30T09:52:10.864Z,87.67
2023-12-30T09:53:10.763Z,87.63
2023-12-30T09:54:10.764Z,87.63
2023-12-30T09:55:10.876Z,87.63
2023-12-30T09:56:10.776Z,87.63
2023-12-30T09:57:10.757Z,87.63
2023-12-30T09:58:10.811Z,87.57
2023-12-30T09:59:10.777Z,87.63
2023-12-30T10:00:10.720Z,87.63
2023-12-30T10:01:10.754Z,87.63
2023-12-30T10:02:10.701Z,87.52
2023-12-30T10:03:10.744Z,87.63
2023-12-30T10:04:10.704Z,87.63
2023-12-30T10:05:10.767Z,87.63
2023-12-30T10:06:10.635Z,87.63
2023-12-30T10:07:10.651Z,87.63
2023-12-30T10:08:10.670Z,87.63
2023-12-30T10:09:10.627Z,87.63
2023-12-30T10:10:10.700Z,87.63
2023-12-30T10:11:10.573Z,87.63
2023-12-30T10:12:10.604Z,87.63
2023-12-30T10:13:12.986Z,87.63
2023-12-30T10:14:10.563Z,87.52
2023-12-30T10:15:10.539Z,87.63
2023-12-30T10:16:10.534Z,87.52
2023-12-30T10:17:10.607Z,87.63
2023-12-30T10:18:10.724Z,87.63
2023-12-30T10:19:10.605Z,87.52
2023-12-30T10:20:11.820Z,87.63
2023-12-30T10:21:10.473Z,87.63
2023-12-30T10:22:10.476Z,87.63
2023-12-30T10:23:10.526Z,87.63
2023-12-30T10:24:10.452Z,87.63
2023-12-30T10:25:10.600Z,87.52
2023-12-30T10:26:10.413Z,87.73
2023-12-30T10:27:10.445Z,87.63
2023-12-30T10:28:10.604Z,87.52
2023-12-30T10:29:10.390Z,87.63
2023-12-30T10:30:10.426Z,87.63
2023-12-30T10:31:10.469Z,87.63
2023-12-30T10:32:10.350Z,87.63
2023-12-30T10:33:10.495Z,87.63
2023-12-30T10:34:10.387Z,87.63
2023-12-30T10:35:10.349Z,87.52
2023-12-30T10:36:10.328Z,87.52
2023-12-30T10:37:10.406Z,87.63
2023-12-30T10:38:10.307Z,87.52
2023-12-30T10:39:10.265Z,87.63
2023-12-30T10:40:10.278Z,87.63
2023-12-30T10:41:10.253Z,87.63
2023-12-30T10:42:10.283Z,87.52
2023-12-30T10:43:10.751Z,87.52
2023-12-30T10:44:10.228Z,87.52
2023-12-30T10:45:10.201Z,87.52
2023-12-30T10:46:10.221Z,87.52
2023-12-30T10:47:10.216Z,87.52
2023-12-30T10:48:10.443Z,87.52
2023-12-30T10:49:10.253Z,87.63
2023-12-30T10:50:10.281Z,87.63
2023-12-30T10:51:10.179Z,87.63
2023-12-30T10:52:10.200Z,87.63
2023-12-30T10:53:10.122Z,87.52
2023-12-30T10:54:10.128Z,87.63
2023-12-30T10:55:10.130Z,87.63
2023-12-30T10:56:10.104Z,87.52
2023-12-30T10:57:10.075Z,87.52
2023-12-30T10:58:10.110Z,87.52
2023-12-30T10:59:10.046Z,87.52
2023-12-30T11:00:10.055Z,87.52
2023-12-30T11:01:10.126Z,87.52
2023-12-30T11:02:10.069Z,87.52
2023-12-30T11:03:10.064Z,87.52
2023-12-30T11:04:10.120Z,87.52
2023-12-30T11:05:10.315Z,87.52
2023-12-30T11:06:10.092Z,87.52
2023-12-30T11:07:10.006Z,87.52
2023-12-30T11:08:09.967Z,87.52
2023-12-30T11:09:09.957Z,87.63
2023-12-30T11:10:10.001Z,87.52
2023-12-30T11:11:09.978Z,87.63
2023-12-30T11:12:09.938Z,87.63
2023-12-30T11:13:09.930Z,87.52
2023-12-30T11:14:09.886Z,87.42
2023-12-30T11:15:09.888Z,87.52
2023-12-30T11:16:09.920Z,87.52
2023-12-30T11:17:09.879Z,87.63
2023-12-30T11:18:09.928Z,87.52
2023-12-30T11:19:09.901Z,87.52
2023-12-30T11:20:09.875Z,87.52
2023-12-30T11:21:10.673Z,87.52
2023-12-30T11:22:09.843Z,87.63
2023-12-30T11:23:09.801Z,87.52
2023-12-30T11:24:09.837Z,87.63
2023-12-30T11:25:09.874Z,87.63
2023-12-30T11:26:09.763Z,87.63
2023-12-30T11:27:09.754Z,87.52
2023-12-30T11:28:09.749Z,87.52
2023-12-30T11:29:09.762Z,87.63
2023-12-30T11:30:09.770Z,87.63
2023-12-30T11:31:09.797Z,87.63
2023-12-30T11:32:09.695Z,87.63
2023-12-30T11:33:09.796Z,87.63
2023-12-30T11:34:09.822Z,87.63
2023-12-30T11:35:09.664Z,87.63
2023-12-30T11:36:09.691Z,87.63
2023-12-30T11:37:09.687Z,87.63
2023-12-30T11:38:09.656Z,87.63
2023-12-30T11:39:09.616Z,87.63
2023-12-30T11:40:09.658Z,87.52
2023-12-30T11:41:09.608Z,87.52
2023-12-30T11:42:09.639Z,87.52
2023-12-30T11:43:09.707Z,87.63
2023-12-30T11:44:09.651Z,87.63
2023-12-30T11:45:09.640Z,87.63
2023-12-30T11:46:09.583Z,87.52
2023-12-30T11:47:09.561Z,87.63
2023-12-30T11:48:09.640Z,87.52
2023-12-30T11:49:09.677Z,87.52
2023-12-30T11:50:13.000Z,87.52
2023-12-30T11:51:09.518Z,87.42
2023-12-30T11:52:09.609Z,87.52
2023-12-30T11:53:09.504Z,87.52
2023-12-30T11:54:09.472Z,87.52
2023-12-30T11:55:09.501Z,87.52
2023-12-30T11:56:09.958Z,87.52
2023-12-30T11:57:09.456Z,87.52
2023-12-30T11:58:09.573Z,87.52
2023-12-30T11:59:09.408Z,87.52
2023-12-30T12:00:09.386Z,87.52
2023-12-30T12:01:09.440Z,87.52
2023-12-30T12:02:09.722Z,87.52
2023-12-30T12:03:09.384Z,87.42
2023-12-30T12:04:09.534Z,87.42
2023-12-30T12:05:09.551Z,87.42
2023-12-30T12:06:09.424Z,87.52
2023-12-30T12:07:09.371Z,87.42
2023-12-30T12:08:09.368Z,87.52
2023-12-30T12:09:09.323Z,87.52
2023-12-30T12:10:09.314Z,87.42
2023-12-30T12:11:09.288Z,87.52
2023-12-30T12:12:09.284Z,87.52
2023-12-30T12:13:09.339Z,87.52
2023-12-30T12:14:09.249Z,87.52
2023-12-30T12:15:09.234Z,87.52
2023-12-30T12:16:09.321Z,87.52
2023-12-30T12:17:09.218Z,87.52
2023-12-30T12:18:09.356Z,87.42
2023-12-30T12:19:09.305Z,87.52
2023-12-30T12:20:09.248Z,87.52
2023-12-30T12:21:09.183Z,87.52
2023-12-30T12:22:09.183Z,87.52
2023-12-30T12:23:09.148Z,87.52
2023-12-30T12:24:09.129Z,87.52
2023-12-30T12:25:09.153Z,87.52
2023-12-30T12:26:09.124Z,87.52
2023-12-30T12:27:09.110Z,87.52
2023-12-30T12:28:09.157Z,87.52
2023-12-30T12:29:09.193Z,87.52
2023-12-30T12:30:09.194Z,87.49
2023-12-30T12:31:09.156Z,87.52
2023-12-30T12:32:09.082Z,87.42
2023-12-30T12:33:09.130Z,87.42
2023-12-30T12:34:09.116Z,87.38
2023-12-30T12:35:09.061Z,87.52
2023-12-30T12:36:09.009Z,87.52
2023-12-30T12:37:09.058Z,87.52
2023-12-30T12:38:08.989Z,87.52
2023-12-30T12:39:08.994Z,87.49
2023-12-30T12:40:09.017Z,87.49
2023-12-30T12:41:09.064Z,87.52
2023-12-30T12:42:18.495Z,87.63
2023-12-30T12:43:09.006Z,87.52
2023-12-30T12:44:08.949Z,87.52
2023-12-30T12:45:09.027Z,87.52
2023-12-30T12:46:08.934Z,87.49
2023-12-30T12:47:08.921Z,87.49
2023-12-30T12:48:08.979Z,87.49
2023-12-30T12:49:08.978Z,87.52
2023-12-30T12:50:08.852Z,87.52
2023-12-30T12:51:08.885Z,87.52
2023-12-30T12:52:08.870Z,87.38